createdAt,value
2018-11-25T00:01:33.213Z,56.70
2018-11-25T00:04:06.462Z,147.37
2018-11-25T00:06:36.639Z,109.20
2018-11-25T00:09:08.971Z,194.37
2018-11-25T00:11:42.831Z,191.80
2018-11-25T00:14:15.094Z,259.43
2018-11-25T00:16:47.191Z,207.53
2018-11-25T00:19:23.613Z,110.10
2018-11-25T00:21:54.173Z,135.15
2018-11-25T00:24:24.576Z,216.70
2018-11-25T00:26:55.004Z,171.03
2018-11-25T00:29:25.479Z,162.70
2018-11-25T00:31:55.837Z,95.43
2018-11-25T00:34:26.174Z,130.47
2018-11-25T00:36:56.214Z,118.10
2018-11-25T00:39:27.012Z,91.37
2018-11-25T00:41:57.596Z,119.50
2018-11-25T00:44:27.904Z,126.40
2018-11-25T00:46:58.701Z,122.43
2018-11-25T00:49:28.841Z,132.90
2018-11-25T00:51:59.286Z,139.00
2018-11-25T00:54:29.762Z,169.30
2018-11-25T00:57:00.059Z,202.07
2018-11-25T00:59:30.099Z,260.27
2018-11-25T01:02:00.248Z,391.90
2018-11-25T01:04:31.010Z,267.02
2018-11-25T01:07:01.320Z,153.80
2018-11-25T01:09:31.652Z,235.23
2018-11-25T01:12:01.878Z,131.87
2018-11-25T01:14:31.867Z,153.03
2018-11-25T01:17:02.216Z,95.77
2018-11-25T01:19:32.274Z,88.30
2018-11-25T01:22:09.266Z,126.07
2018-11-25T01:24:39.488Z,120.05
2018-11-25T01:27:09.630Z,129.33
2018-11-25T01:29:40.323Z,149.77
2018-11-25T01:32:10.401Z,90.80
2018-11-25T01:34:40.394Z,145.53
2018-11-25T01:37:11.967Z,100.82
2018-11-25T01:39:44.362Z,91.73
2018-11-25T01:42:15.369Z,108.37
2018-11-25T01:44:48.175Z,164.83
2018-11-25T01:47:20.351Z,149.75
2018-11-25T01:49:51.341Z,88.37
2018-11-25T01:52:21.412Z,97.73
2018-11-25T01:54:52.406Z,82.30
2018-11-25T01:57:22.920Z,250.87
2018-11-25T01:59:53.203Z,135.57
2018-11-25T02:02:23.426Z,122.30
2018-11-25T02:04:53.468Z,107.07
2018-11-25T02:07:23.523Z,118.10
2018-11-25T02:09:55.130Z,191.07
2018-11-25T02:12:25.131Z,129.13
2018-11-25T02:14:55.233Z,108.50
2018-11-25T02:17:25.561Z,131.50
2018-11-25T02:19:55.614Z,123.63
2018-11-25T02:22:26.330Z,210.23
2018-11-25T02:24:56.673Z,196.37
2018-11-25T02:27:26.974Z,199.90
2018-11-25T02:29:57.274Z,219.23
2018-11-25T02:32:27.731Z,150.53
2018-11-25T02:34:57.759Z,132.80
2018-11-25T02:37:31.686Z,113.87
2018-11-25T02:40:01.727Z,194.30
2018-11-25T02:42:33.806Z,187.27
2018-11-25T02:45:14.940Z,148.00
2018-11-25T02:47:45.107Z,235.48
2018-11-25T02:50:33.363Z,256.37
2018-11-25T02:53:06.162Z,148.10
2018-11-25T02:55:36.843Z,136.73
2018-11-25T02:58:11.634Z,217.70
2018-11-25T03:00:43.797Z,125.15
2018-11-25T03:03:14.869Z,136.28
2018-11-25T03:05:44.882Z,112.77
2018-11-25T03:08:21.552Z,154.57
2018-11-25T03:10:51.862Z,109.80
2018-11-25T03:13:24.798Z,77.57
2018-11-25T03:15:54.793Z,101.63
2018-11-25T03:18:25.890Z,109.97
2018-11-25T03:20:56.835Z,154.70
2018-11-25T03:23:26.953Z,81.97
2018-11-25T03:25:59.938Z,110.30
2018-11-25T03:28:30.885Z,109.75
2018-11-25T03:31:00.890Z,180.93
2018-11-25T03:33:31.894Z,180.05
2018-11-25T03:36:05.054Z,153.60
2018-11-25T03:38:35.051Z,210.83
2018-11-25T03:41:06.503Z,109.73
2018-11-25T03:43:38.921Z,158.90
2018-11-25T03:46:09.035Z,193.82
2018-11-25T03:48:39.753Z,197.53
2018-11-25T03:51:10.065Z,325.93
2018-11-25T03:53:40.064Z,264.08
2018-11-25T03:56:10.722Z,234.73
2018-11-25T03:58:41.043Z,338.35
2018-11-25T04:01:11.383Z,359.18
2018-11-25T04:03:41.658Z,249.57
2018-11-25T04:06:11.903Z,173.80
2018-11-25T04:08:42.229Z,167.77
2018-11-25T04:11:12.729Z,186.83
2018-11-25T04:13:43.214Z,357.30
2018-11-25T04:16:13.541Z,336.23
2018-11-25T04:18:44.296Z,337.20
2018-11-25T04:21:15.934Z,164.13
2018-11-25T04:23:47.254Z,336.20
2018-11-25T04:26:18.185Z,188.13
2018-11-25T04:28:51.168Z,316.20
2018-11-25T04:31:21.222Z,238.47
2018-11-25T04:33:52.343Z,266.77
2018-11-25T04:36:22.359Z,403.40
2018-11-25T04:38:52.375Z,270.07
2018-11-25T04:41:23.177Z,304.73
2018-11-25T04:43:53.542Z,299.52
2018-11-25T04:46:26.334Z,331.70
2018-11-25T04:48:57.260Z,319.60
2018-11-25T04:51:27.263Z,321.60
2018-11-25T04:54:00.269Z,212.33
2018-11-25T04:56:34.036Z,335.70
2018-11-25T04:59:04.262Z,178.50
2018-11-25T05:01:34.906Z,270.20
2018-11-25T05:04:05.861Z,280.27
2018-11-25T05:06:35.909Z,338.53
2018-11-25T05:09:08.439Z,239.90
2018-11-25T05:11:39.559Z,236.62
2018-11-25T05:14:12.139Z,185.93
2018-11-25T05:16:42.503Z,238.67
2018-11-25T05:19:12.529Z,145.50
2018-11-25T05:21:43.559Z,268.30
2018-11-25T05:24:15.467Z,249.10
2018-11-25T05:26:47.387Z,227.10
2018-11-25T05:29:18.406Z,257.97
2018-11-25T05:31:51.255Z,184.23
2018-11-25T05:34:21.504Z,142.43
2018-11-25T05:36:52.512Z,200.43
2018-11-25T05:39:24.555Z,199.57
2018-11-25T05:41:56.310Z,202.30
2018-11-25T05:44:26.858Z,291.50
2018-11-25T05:46:57.256Z,208.33
2018-11-25T05:49:27.719Z,285.03
2018-11-25T05:51:58.167Z,288.70
2018-11-25T05:54:28.447Z,156.83
2018-11-25T05:56:59.056Z,351.48
2018-11-25T05:59:29.075Z,267.30
2018-11-25T06:01:59.408Z,199.25
2018-11-25T06:04:29.655Z,252.50
2018-11-25T06:06:59.667Z,291.88
2018-11-25T06:09:30.257Z,237.80
2018-11-25T06:12:00.644Z,267.97
2018-11-25T06:14:30.975Z,181.27
2018-11-25T06:17:01.274Z,140.23
2018-11-25T06:19:31.597Z,261.23
2018-11-25T06:22:01.710Z,277.90
2018-11-25T06:24:32.207Z,231.97
2018-11-25T06:27:02.830Z,152.13
2018-11-25T06:29:33.062Z,182.30
2018-11-25T06:32:04.075Z,197.80
2018-11-25T06:34:34.493Z,220.87
2018-11-25T06:37:04.623Z,193.37
2018-11-25T06:39:34.699Z,140.73
2018-11-25T06:42:04.947Z,178.40
2018-11-25T06:44:35.200Z,160.23
2018-11-25T06:47:06.402Z,193.73
2018-11-25T06:49:39.314Z,194.80
2018-11-25T06:52:11.852Z,210.63
2018-11-25T06:54:42.799Z,172.30
2018-11-25T06:57:12.818Z,144.43
2018-11-25T06:59:42.850Z,224.60
2018-11-25T07:02:13.014Z,218.02
2018-11-25T07:04:43.779Z,218.03
2018-11-25T07:07:15.849Z,181.20
2018-11-25T07:09:53.639Z,172.07
2018-11-25T07:12:24.265Z,160.53
2018-11-25T07:14:54.554Z,143.27
2018-11-25T07:17:24.945Z,151.03
2018-11-25T07:19:55.344Z,108.17
2018-11-25T07:22:25.652Z,138.18
2018-11-25T07:24:55.987Z,133.20
2018-11-25T07:27:26.439Z,99.35
2018-11-25T07:29:56.800Z,106.47
2018-11-25T07:32:27.070Z,118.30
2018-11-25T07:34:57.475Z,125.27
2018-11-25T07:37:28.106Z,123.10
2018-11-25T07:39:58.311Z,146.27
2018-11-25T07:42:28.656Z,149.23
2018-11-25T07:44:59.083Z,175.10
2018-11-25T07:47:29.124Z,162.73
2018-11-25T07:49:59.974Z,120.83
2018-11-25T07:52:30.066Z,138.67
2018-11-25T07:55:00.115Z,163.43
2018-11-25T07:57:31.086Z,136.30
2018-11-25T08:00:01.136Z,141.77
2018-11-25T08:02:31.217Z,160.07
2018-11-25T08:05:06.136Z,148.53
2018-11-25T08:07:36.644Z,111.63
2018-11-25T08:10:10.930Z,111.87
2018-11-25T08:12:43.566Z,121.85
2018-11-25T08:15:17.004Z,114.30
2018-11-25T08:17:47.177Z,120.87
2018-11-25T08:20:22.024Z,128.53
2018-11-25T08:22:53.324Z,107.03
2018-11-25T08:25:24.799Z,114.43
2018-11-25T08:27:57.325Z,115.67
2018-11-25T08:30:30.330Z,102.17
2018-11-25T08:33:00.383Z,95.93
2018-11-25T08:35:34.408Z,95.75
2018-11-25T08:38:12.316Z,82.20
2018-11-25T08:40:44.279Z,98.57
2018-11-25T08:43:15.289Z,92.73
2018-11-25T08:45:47.796Z,70.30
2018-11-25T08:48:18.371Z,73.00
2018-11-25T08:50:54.216Z,68.07
2018-11-25T08:53:24.434Z,85.63
2018-11-25T08:55:55.040Z,71.90
2018-11-25T08:58:25.384Z,92.17
2018-11-25T09:00:55.389Z,89.00
2018-11-25T09:03:29.282Z,97.07
2018-11-25T09:05:59.288Z,93.03
2018-11-25T09:08:29.327Z,92.87
2018-11-25T09:10:59.521Z,107.90
2018-11-25T09:13:30.530Z,90.03
2018-11-25T09:16:00.586Z,97.10
2018-11-25T09:18:31.351Z,119.97
2018-11-25T09:21:01.444Z,96.70
2018-11-25T09:23:40.247Z,87.80
2018-11-25T09:26:11.593Z,109.80
2018-11-25T09:28:44.569Z,88.70
2018-11-25T09:31:15.127Z,86.53
2018-11-25T09:33:45.412Z,106.47
2018-11-25T09:36:15.707Z,99.77
2018-11-25T09:38:46.063Z,92.73
2018-11-25T09:41:17.903Z,91.30
2018-11-25T09:43:52.431Z,77.60
2018-11-25T09:46:22.547Z,79.47
2018-11-25T09:48:53.553Z,78.12
2018-11-25T09:51:23.735Z,90.47
2018-11-25T09:53:56.718Z,89.97
2018-11-25T09:56:27.990Z,77.53
2018-11-25T09:59:04.280Z,88.13
2018-11-25T10:01:37.686Z,83.07
2018-11-25T10:04:14.058Z,79.80
2018-11-25T10:06:50.644Z,87.13
2018-11-25T10:09:21.928Z,88.47
2018-11-25T10:11:55.052Z,89.23
2018-11-25T10:14:28.872Z,97.00
2018-11-25T10:17:07.506Z,86.40
2018-11-25T10:19:38.635Z,97.53
2018-11-25T10:22:11.142Z,101.90
2018-11-25T10:24:42.812Z,89.40
2018-11-25T10:27:13.783Z,94.37
2018-11-25T10:29:47.002Z,92.27
2018-11-25T10:32:19.397Z,82.43
2018-11-25T10:34:52.621Z,83.37
2018-11-25T10:37:25.519Z,74.72
2018-11-25T10:39:55.900Z,71.53
2018-11-25T10:42:26.675Z,80.10
2018-11-25T10:44:56.750Z,70.53
2018-11-25T10:47:27.203Z,89.67
2018-11-25T10:49:57.521Z,87.70
2018-11-25T10:52:27.872Z,86.10
2018-11-25T10:54:58.417Z,97.70
2018-11-25T10:57:28.585Z,111.53
2018-11-25T10:59:59.072Z,84.90
2018-11-25T11:02:34.612Z,107.43
2018-11-25T11:05:07.243Z,88.90
2018-11-25T11:07:44.838Z,104.10
2018-11-25T11:10:15.480Z,105.17
2018-11-25T11:12:45.716Z,86.17
2018-11-25T11:15:15.991Z,106.13
2018-11-25T11:17:46.358Z,101.83
2018-11-25T11:20:16.963Z,91.97
2018-11-25T11:22:47.971Z,92.03
2018-11-25T11:25:20.330Z,87.67
2018-11-25T11:27:51.542Z,80.10
2018-11-25T11:30:24.580Z,88.57
2018-11-25T11:32:55.421Z,95.30
2018-11-25T11:35:28.476Z,95.67
2018-11-25T11:38:01.252Z,81.70
2018-11-25T11:40:34.041Z,84.17
2018-11-25T11:43:05.376Z,77.57
2018-11-25T11:45:35.469Z,104.47
2018-11-25T11:48:06.181Z,80.00
2018-11-25T11:50:36.526Z,77.47
2018-11-25T11:53:07.957Z,87.63
2018-11-25T11:55:40.343Z,61.25
2018-11-25T11:58:12.619Z,79.87
2018-11-25T12:00:43.299Z,82.87
2018-11-25T12:03:13.468Z,78.50
2018-11-25T12:05:44.212Z,79.20
2018-11-25T12:08:16.308Z,75.77
2018-11-25T12:10:54.034Z,87.63
2018-11-25T12:13:24.505Z,76.97
2018-11-25T12:15:54.983Z,103.70
2018-11-25T12:18:25.253Z,96.23
2018-11-25T12:20:55.744Z,93.00
2018-11-25T12:23:29.194Z,95.10
2018-11-25T12:25:59.209Z,107.53
2018-11-25T12:28:30.713Z,91.77
2018-11-25T12:31:03.492Z,110.63
2018-11-25T12:33:33.762Z,95.13
2018-11-25T12:36:04.489Z,105.50
2018-11-25T12:38:37.408Z,91.08
2018-11-25T12:41:08.884Z,100.53
2018-11-25T12:43:41.576Z,96.43
2018-11-25T12:46:34.386Z,92.80
2018-11-25T12:49:09.701Z,86.60
2018-11-25T12:51:42.482Z,84.80
2018-11-25T12:54:12.732Z,99.70
2018-11-25T12:56:44.053Z,96.05
2018-11-25T12:59:14.113Z,94.77
2018-11-25T13:01:57.918Z,111.30
2018-11-25T13:04:43.383Z,101.20
2018-11-25T13:07:13.465Z,110.00
2018-11-25T13:09:45.525Z,131.50
2018-11-25T13:12:16.622Z,130.12
2018-11-25T13:14:49.415Z,112.70
2018-11-25T13:17:19.600Z,110.97
2018-11-25T13:19:49.822Z,122.43
2018-11-25T13:22:21.020Z,109.90
2018-11-25T13:24:53.616Z,107.23
2018-11-25T13:27:25.699Z,120.63
2018-11-25T13:29:59.204Z,97.43
2018-11-25T13:32:31.614Z,102.57
2018-11-25T13:35:08.261Z,96.03
2018-11-25T13:37:43.499Z,117.17
2018-11-25T13:40:15.551Z,103.93
2018-11-25T13:42:46.075Z,111.73
2018-11-25T13:45:18.652Z,103.62
2018-11-25T13:47:54.706Z,123.53
2018-11-25T13:50:24.762Z,113.50
2018-11-25T13:52:55.130Z,112.33
2018-11-25T13:55:26.789Z,107.77
2018-11-25T13:57:58.699Z,99.67
2018-11-25T14:00:31.883Z,99.77
2018-11-25T14:03:10.816Z,103.43
2018-11-25T14:05:41.679Z,106.50
2018-11-25T14:08:11.825Z,105.13
2018-11-25T14:10:42.522Z,110.07
2018-11-25T14:13:12.716Z,102.83
2018-11-25T14:15:43.315Z,96.90
2018-11-25T14:18:13.578Z,93.70
2018-11-25T14:20:43.959Z,120.60
2018-11-25T14:23:14.701Z,133.83
2018-11-25T14:25:44.888Z,136.35
2018-11-25T14:28:16.321Z,106.47
2018-11-25T14:30:49.029Z,119.93
2018-11-25T14:33:22.540Z,122.47
2018-11-25T14:35:55.068Z,125.40
2018-11-25T14:38:30.095Z,120.95
2018-11-25T14:41:00.440Z,149.83
2018-11-25T14:43:33.072Z,123.47
2018-11-25T14:46:03.506Z,135.50
2018-11-25T14:48:33.781Z,141.07
2018-11-25T14:51:04.263Z,138.43
2018-11-25T14:53:34.776Z,131.90
2018-11-25T14:56:05.083Z,119.13
2018-11-25T14:58:35.651Z,143.37
2018-11-25T15:01:06.062Z,118.90
2018-11-25T15:03:36.998Z,125.83
2018-11-25T15:06:09.984Z,134.97
2018-11-25T15:08:40.186Z,158.47
2018-11-25T15:11:13.028Z,128.68
2018-11-25T15:13:44.221Z,128.10
2018-11-25T15:16:22.173Z,127.33
2018-11-25T15:18:53.174Z,143.50
2018-11-25T15:21:24.682Z,132.67
2018-11-25T15:23:57.087Z,164.77
2018-11-25T15:26:34.435Z,148.80
2018-11-25T15:29:06.618Z,131.20
2018-11-25T15:31:37.371Z,146.18
2018-11-25T15:34:10.465Z,150.00
2018-11-25T15:36:40.566Z,133.70
2018-11-25T15:39:12.132Z,133.73
2018-11-25T15:41:44.198Z,141.20
2018-11-25T15:44:16.301Z,141.15
2018-11-25T15:46:50.226Z,135.73
2018-11-25T15:49:21.330Z,140.13
2018-11-25T15:51:55.188Z,136.33
2018-11-25T15:54:25.372Z,143.40
2018-11-25T15:56:58.126Z,139.70
2018-11-25T15:59:28.321Z,157.87
2018-11-25T16:01:58.910Z,148.17
2018-11-25T16:04:29.151Z,146.63
2018-11-25T16:07:00.541Z,145.20
2018-11-25T16:09:32.450Z,142.10
2018-11-25T16:12:09.417Z,125.18
2018-11-25T16:14:42.432Z,157.95
2018-11-25T16:17:12.725Z,151.90
2018-11-25T16:19:47.155Z,159.83
2018-11-25T16:22:19.931Z,160.47
2018-11-25T16:24:52.456Z,142.57
2018-11-25T16:27:25.565Z,146.37
2018-11-25T16:29:56.530Z,133.20
2018-11-25T16:32:29.648Z,122.90
2018-11-25T16:35:02.473Z,113.60
2018-11-25T16:37:33.290Z,121.40
2018-11-25T16:40:03.660Z,116.23
2018-11-25T16:42:34.049Z,116.60
2018-11-25T16:45:04.539Z,115.77
2018-11-25T16:47:34.599Z,119.77
2018-11-25T16:50:06.569Z,99.87
2018-11-25T16:52:38.619Z,97.20
2018-11-25T16:55:14.707Z,114.50
2018-11-25T16:57:47.681Z,96.70
2018-11-25T17:00:41.613Z,103.07
2018-11-25T17:03:26.696Z,104.80
2018-11-25T17:05:57.713Z,105.77
2018-11-25T17:08:35.379Z,104.03
2018-11-25T17:11:08.424Z,94.53
2018-11-25T17:13:40.719Z,92.90
2018-11-25T17:16:11.863Z,83.93
2018-11-25T17:18:44.744Z,89.62
2018-11-25T17:21:16.690Z,84.33
2018-11-25T17:23:50.553Z,84.50
2018-11-25T17:26:22.777Z,88.93
2018-11-25T17:28:55.136Z,77.87
2018-11-25T17:31:25.763Z,68.63
2018-11-25T17:33:56.221Z,82.05
2018-11-25T17:36:26.669Z,98.13
2018-11-25T17:38:57.026Z,73.63
2018-11-25T17:41:27.550Z,77.17
2018-11-25T17:43:57.836Z,70.80
2018-11-25T17:46:28.008Z,72.87
2018-11-25T17:48:59.004Z,63.07
2018-11-25T17:51:29.179Z,62.37
2018-11-25T17:53:59.982Z,73.47
2018-11-25T17:56:30.168Z,69.65
2018-11-25T17:59:00.965Z,61.30
2018-11-25T18:01:31.165Z,62.33
2018-11-25T18:04:01.338Z,59.13
2018-11-25T18:06:31.783Z,68.27
2018-11-25T18:09:01.941Z,62.23
2018-11-25T18:11:32.469Z,72.80
2018-11-25T18:14:02.923Z,59.53
2018-11-25T18:16:33.095Z,58.70
2018-11-25T18:19:24.340Z,68.00
2018-11-25T18:22:00.760Z,54.97
2018-11-25T18:24:31.086Z,63.30
2018-11-25T18:27:09.945Z,65.83
2018-11-25T18:29:43.365Z,78.67
2018-11-25T18:32:13.657Z,59.97
2018-11-25T18:34:44.244Z,65.78
2018-11-25T18:37:17.088Z,60.67
2018-11-25T18:39:48.119Z,67.73
2018-11-25T18:42:20.123Z,63.33
2018-11-25T18:44:51.255Z,64.23
2018-11-25T18:47:21.872Z,64.10
2018-11-25T18:49:52.273Z,58.30
2018-11-25T18:52:23.076Z,65.70
2018-11-25T18:54:51.934Z,67.33
2018-11-25T18:57:23.266Z,61.90
2018-11-25T18:59:57.680Z,50.57
2018-11-25T19:02:41.610Z,57.37
2018-11-25T19:05:12.186Z,56.80
2018-11-25T19:07:43.267Z,53.30
2018-11-25T19:10:16.037Z,52.78
2018-11-25T19:12:46.182Z,43.87
2018-11-25T19:15:20.037Z,46.80
2018-11-25T19:17:50.098Z,45.33
2018-11-25T19:20:28.105Z,50.13
2018-11-25T19:23:00.531Z,43.00
2018-11-25T19:25:33.248Z,55.47
2018-11-25T19:28:03.490Z,39.33
2018-11-25T19:30:36.427Z,46.47
2018-11-25T19:33:08.919Z,40.50
2018-11-25T19:35:40.673Z,37.27
2018-11-25T19:38:11.440Z,34.40
2018-11-25T19:40:44.276Z,44.43
2018-11-25T19:43:14.668Z,38.73
2018-11-25T19:45:44.920Z,43.63
2018-11-25T19:48:15.369Z,39.05
2018-11-25T19:50:45.758Z,36.33
2018-11-25T19:53:16.158Z,38.63
2018-11-25T19:55:46.197Z,39.27
2018-11-25T19:58:16.253Z,37.07
2018-11-25T20:00:53.405Z,38.23
2018-11-25T20:03:26.410Z,36.10
2018-11-25T20:05:57.401Z,41.83
2018-11-25T20:08:33.401Z,46.30
2018-11-25T20:11:03.547Z,34.47
2018-11-25T20:13:34.382Z,35.73
2018-11-25T20:16:10.097Z,42.15
2018-11-25T20:18:42.428Z,36.83
2018-11-25T20:21:21.459Z,40.57
2018-11-25T20:24:00.539Z,35.43
2018-11-25T20:26:31.238Z,45.07
2018-11-25T20:29:01.575Z,39.73
2018-11-25T20:31:31.643Z,41.73
2018-11-25T20:34:02.440Z,39.97
2018-11-25T20:36:35.532Z,34.47
2018-11-25T20:39:43.269Z,32.67
2018-11-25T20:42:13.463Z,40.80
2018-11-25T20:44:45.751Z,37.43
2018-11-25T20:47:16.523Z,37.57
2018-11-25T20:49:47.946Z,40.33
2018-11-25T20:52:24.939Z,41.13
2018-11-25T20:55:01.510Z,37.40
2018-11-25T20:57:31.672Z,41.03
2018-11-25T21:00:11.316Z,40.60
2018-11-25T21:02:41.920Z,37.50
2018-11-25T21:05:16.819Z,36.75
2018-11-25T21:08:00.082Z,40.87
2018-11-25T21:10:43.220Z,40.70
2018-11-25T21:13:14.711Z,44.43
2018-11-25T21:15:46.778Z,43.17
2018-11-25T21:18:19.709Z,40.57
2018-11-25T21:20:51.323Z,34.80
2018-11-25T21:23:20.737Z,43.08
2018-11-25T21:25:51.920Z,48.55
2018-11-25T21:28:24.130Z,46.00
2018-11-25T21:30:56.745Z,39.23
2018-11-25T21:33:45.486Z,42.03
2018-11-25T21:36:40.256Z,38.50
2018-11-25T21:39:12.743Z,45.70
2018-11-25T21:41:43.931Z,36.30
2018-11-25T21:44:13.936Z,41.83
2018-11-25T21:46:44.083Z,38.10
2018-11-25T21:49:15.797Z,42.53
2018-11-25T21:51:47.922Z,41.73
2018-11-25T21:54:18.471Z,37.83
2018-11-25T21:56:49.135Z,38.37
2018-11-25T21:59:24.888Z,40.40
2018-11-25T22:01:55.843Z,33.70
2018-11-25T22:04:25.979Z,38.90
2018-11-25T22:07:03.735Z,39.73
2018-11-25T22:09:38.926Z,35.90
2018-11-25T22:12:09.020Z,42.93
2018-11-25T22:14:41.303Z,39.97
2018-11-25T22:17:15.654Z,39.73
2018-11-25T22:19:46.204Z,41.67
2018-11-25T22:22:22.187Z,33.63
2018-11-25T22:24:52.787Z,41.00
2018-11-25T22:27:24.180Z,31.05
2018-11-25T22:29:59.252Z,33.93
2018-11-25T22:32:36.231Z,34.60
2018-11-25T22:35:11.907Z,31.90
2018-11-25T22:37:43.136Z,35.30
2018-11-25T22:40:14.542Z,30.57
2018-11-25T22:42:46.931Z,30.70
2018-11-25T22:45:19.411Z,28.52
2018-11-25T22:47:50.174Z,28.93
2018-11-25T22:50:27.701Z,28.43
2018-11-25T22:52:57.041Z,25.80
2018-11-25T22:55:27.718Z,24.67
2018-11-25T22:57:58.069Z,29.27
2018-11-25T23:00:29.866Z,26.23
2018-11-25T23:03:02.151Z,24.70
2018-11-25T23:05:43.359Z,20.93
2018-11-25T23:08:13.515Z,17.23
2018-11-25T23:10:45.314Z,24.57
2018-11-25T23:13:15.808Z,26.90
2018-11-25T23:15:46.284Z,18.03
2018-11-25T23:18:16.730Z,17.77
2018-11-25T23:20:47.103Z,21.70
2018-11-25T23:23:17.165Z,17.37
2018-11-25T23:25:47.270Z,16.87
2018-11-25T23:28:17.318Z,20.33
2018-11-25T23:30:48.187Z,18.30
2018-11-25T23:33:18.952Z,13.33
2018-11-25T23:35:49.290Z,17.87
2018-11-25T23:38:19.582Z,20.67
2018-11-25T23:40:49.944Z,16.77
2018-11-25T23:43:20.230Z,20.27
2018-11-25T23:45:50.514Z,13.90
2018-11-25T23:48:21.019Z,24.30
2018-11-25T23:50:51.029Z,19.50
2018-11-25T23:53:21.327Z,18.80
2018-11-25T23:55:51.432Z,22.77
2018-11-25T23:58:21.975Z,14.90
